createdAt,value
2022-12-19T00:01:18.773Z,62.45
2022-12-19T00:03:50.320Z,66.70
2022-12-19T00:06:18.069Z,64.07
2022-12-19T00:08:47.184Z,64.20
2022-12-19T00:11:14.510Z,71.32
2022-12-19T00:13:41.693Z,66.80
2022-12-19T00:16:15.560Z,71.28
2022-12-19T00:18:46.653Z,67.50
2022-12-19T00:21:16.470Z,72.57
2022-12-19T00:23:43.359Z,29.88
2022-12-19T00:26:16.106Z,64.95
2022-12-19T00:28:44.913Z,70.85
2022-12-19T00:31:15.916Z,30.25
2022-12-19T00:33:43.418Z,38.83
2022-12-19T00:36:14.556Z,69.55
2022-12-19T00:41:13.538Z,67.82
2022-12-19T00:43:40.801Z,66.65
2022-12-19T00:46:09.872Z,72.60
2022-12-19T00:48:36.881Z,71.50
2022-12-19T00:51:15.840Z,28.85
2022-12-19T00:53:43.085Z,68.68
2022-12-19T00:56:15.479Z,71.15
2022-12-19T00:58:46.890Z,69.85
2022-12-19T01:03:58.122Z,69.35
2022-12-19T01:06:29.724Z,68.97
2022-12-19T01:08:56.745Z,35.30
2022-12-19T01:11:43.561Z,34.08
2022-12-19T01:14:14.025Z,68.85
2022-12-19T01:16:44.231Z,71.53
2022-12-19T01:19:11.257Z,73.05
2022-12-19T01:21:37.808Z,68.82
2022-12-19T01:24:05.725Z,69.28
2022-12-19T01:26:32.282Z,64.47
2022-12-19T01:28:58.798Z,73.80
2022-12-19T01:31:27.298Z,71.28
2022-12-19T01:33:55.345Z,71.57
2022-12-19T01:36:23.008Z,70.47
2022-12-19T01:38:49.478Z,71.50
2022-12-19T01:41:16.160Z,71.72
2022-12-19T01:44:00.630Z,74.38
2022-12-19T01:46:47.310Z,68.53
2022-12-19T01:49:22.979Z,70.18
2022-12-19T01:51:53.643Z,71.72
2022-12-19T01:54:25.396Z,71.72
2022-12-19T01:56:55.914Z,69.72
2022-12-19T01:59:45.380Z,70.45
2022-12-19T02:02:52.378Z,70.35
2022-12-19T02:05:19.082Z,70.68
2022-12-19T02:07:46.569Z,72.93
2022-12-19T02:10:13.044Z,75.78
2022-12-19T02:12:43.612Z,78.65
2022-12-19T02:15:14.375Z,70.95
2022-12-19T02:17:54.742Z,76.00
2022-12-19T02:20:39.534Z,76.90
2022-12-19T02:23:27.729Z,77.05
2022-12-19T02:26:13.086Z,76.03
2022-12-19T02:28:58.511Z,75.93
2022-12-19T02:31:34.943Z,78.85
2022-12-19T02:34:44.275Z,82.32
2022-12-19T02:37:24.072Z,81.07
2022-12-19T02:39:59.616Z,85.15
2022-12-19T02:42:35.268Z,81.93
2022-12-19T02:45:06.711Z,77.75
2022-12-19T02:47:34.173Z,80.05
2022-12-19T02:50:02.927Z,78.20
2022-12-19T02:52:29.812Z,85.13
2022-12-19T02:55:01.385Z,78.97
2022-12-19T02:57:38.296Z,76.22
2022-12-19T03:00:07.322Z,83.72
2022-12-19T03:03:09.214Z,79.65
2022-12-19T03:05:45.070Z,78.18
2022-12-19T03:08:30.332Z,80.25
2022-12-19T03:11:02.166Z,81.03
2022-12-19T03:13:59.267Z,78.10
2022-12-19T03:16:26.522Z,76.70
2022-12-19T03:18:57.692Z,73.07
2022-12-19T03:21:32.449Z,77.50
2022-12-19T03:23:59.232Z,79.78
2022-12-19T03:26:31.125Z,79.78
2022-12-19T03:31:32.210Z,67.28
2022-12-19T03:34:02.380Z,70.93
2022-12-19T03:36:39.244Z,73.30
2022-12-19T03:39:08.998Z,72.28
2022-12-19T03:41:56.972Z,77.80
2022-12-19T03:44:26.803Z,80.60
2022-12-19T03:47:26.572Z,71.82
2022-12-19T03:49:53.353Z,71.85
2022-12-19T03:52:32.922Z,74.80
2022-12-19T03:55:16.441Z,68.97
2022-12-19T03:57:47.832Z,70.45
2022-12-19T04:00:17.416Z,74.05
2022-12-19T04:02:51.195Z,72.22
2022-12-19T04:05:23.305Z,71.80
2022-12-19T04:07:53.671Z,65.68
2022-12-19T04:10:26.332Z,64.35
2022-12-19T04:13:04.482Z,62.38
2022-12-19T04:15:43.999Z,59.83
2022-12-19T04:18:13.549Z,62.42
2022-12-19T04:20:45.533Z,56.10
2022-12-19T04:25:51.368Z,51.63
2022-12-19T04:28:27.875Z,56.50
2022-12-19T04:30:54.504Z,56.38
2022-12-19T04:33:21.042Z,51.17
2022-12-19T04:35:47.665Z,57.15
2022-12-19T04:38:14.346Z,49.90
2022-12-19T04:40:41.697Z,47.50
2022-12-19T04:43:08.828Z,47.70
2022-12-19T04:45:35.351Z,52.35
2022-12-19T04:48:03.214Z,53.20
2022-12-19T04:50:29.880Z,49.30
2022-12-19T04:52:57.941Z,48.17
2022-12-19T04:55:24.675Z,49.08
2022-12-19T04:57:51.158Z,43.97
2022-12-19T05:00:17.733Z,49.40
2022-12-19T05:02:44.520Z,48.83
2022-12-19T05:05:11.225Z,44.63
2022-12-19T05:07:37.697Z,46.30
2022-12-19T05:10:04.888Z,47.47
2022-12-19T05:12:31.442Z,38.38
2022-12-19T05:14:57.965Z,38.75
2022-12-19T05:17:24.558Z,37.08
2022-12-19T05:19:51.068Z,40.33
2022-12-19T05:22:17.593Z,37.28
2022-12-19T05:24:44.685Z,41.80
2022-12-19T05:27:11.230Z,39.40
2022-12-19T05:29:37.716Z,39.45
2022-12-19T05:32:04.252Z,35.08
2022-12-19T05:34:30.885Z,35.70
2022-12-19T05:36:57.492Z,36.83
2022-12-19T05:39:24.758Z,35.40
2022-12-19T05:41:51.330Z,39.28
2022-12-19T05:44:17.960Z,38.67
2022-12-19T05:46:45.053Z,39.00
2022-12-19T05:49:11.628Z,39.03
2022-12-19T05:51:38.279Z,37.90
2022-12-19T05:54:05.028Z,35.83
2022-12-19T05:56:31.541Z,39.28
2022-12-19T05:58:58.118Z,36.80
2022-12-19T06:01:26.995Z,34.80
2022-12-19T06:03:54.779Z,33.83
2022-12-19T06:06:23.731Z,34.38
2022-12-19T06:08:55.333Z,36.53
2022-12-19T06:11:22.531Z,34.67
2022-12-19T06:13:49.224Z,37.63
2022-12-19T06:16:18.450Z,38.25
2022-12-19T06:18:46.140Z,33.42
2022-12-19T06:21:15.455Z,34.58
2022-12-19T06:23:42.803Z,34.95
2022-12-19T06:26:17.155Z,31.33
2022-12-19T06:28:46.160Z,32.00
2022-12-19T06:31:13.721Z,31.88
2022-12-19T06:33:40.717Z,29.88
2022-12-19T06:36:11.823Z,31.15
2022-12-19T06:38:38.548Z,32.17
2022-12-19T06:41:24.045Z,29.13
2022-12-19T06:43:53.557Z,29.95
2022-12-19T06:46:20.409Z,29.45
2022-12-19T06:48:47.063Z,29.17
2022-12-19T06:51:13.632Z,29.10
2022-12-19T06:53:40.321Z,29.27
2022-12-19T06:56:07.363Z,32.75
2022-12-19T06:58:34.808Z,29.77
2022-12-19T07:01:01.757Z,31.40
2022-12-19T07:03:38.806Z,28.60
2022-12-19T07:06:05.877Z,28.25
2022-12-19T07:08:32.399Z,28.58
2022-12-19T07:10:59.583Z,29.98
2022-12-19T07:13:27.403Z,28.95
2022-12-19T07:15:57.040Z,27.10
2022-12-19T07:18:26.953Z,27.25
2022-12-19T07:20:53.446Z,27.15
2022-12-19T07:23:21.965Z,27.83
2022-12-19T07:25:48.521Z,27.85
2022-12-19T07:28:16.157Z,28.63
2022-12-19T07:30:42.680Z,28.67
2022-12-19T07:33:11.869Z,27.55
2022-12-19T07:35:39.619Z,27.52
2022-12-19T07:38:06.992Z,23.25
2022-12-19T07:40:34.245Z,24.75
2022-12-19T07:43:02.366Z,23.75
2022-12-19T07:45:29.908Z,26.40
2022-12-19T07:47:59.568Z,22.92
2022-12-19T07:50:26.033Z,26.00
2022-12-19T07:52:52.558Z,24.63
2022-12-19T07:55:19.060Z,23.42
2022-12-19T07:57:45.607Z,22.52
2022-12-19T08:00:12.779Z,22.67
2022-12-19T08:02:40.035Z,22.67
2022-12-19T08:05:06.952Z,23.40
2022-12-19T08:07:33.528Z,22.80
2022-12-19T08:10:00.577Z,22.80
2022-12-19T08:12:27.171Z,20.73
2022-12-19T08:14:57.126Z,19.23
2022-12-19T08:17:24.032Z,21.95
2022-12-19T08:19:50.648Z,23.30
2022-12-19T08:22:17.186Z,21.85
2022-12-19T08:24:43.731Z,21.23
2022-12-19T08:27:10.307Z,19.98
2022-12-19T08:29:36.856Z,22.17
2022-12-19T08:32:03.512Z,20.35
2022-12-19T08:34:30.036Z,20.35
2022-12-19T08:36:56.829Z,19.75
2022-12-19T08:39:23.384Z,21.30
2022-12-19T08:41:49.913Z,19.30
2022-12-19T08:44:16.481Z,18.77
2022-12-19T08:46:49.459Z,19.33
2022-12-19T08:49:16.574Z,19.55
2022-12-19T08:51:43.062Z,19.30
2022-12-19T08:54:11.664Z,20.90
2022-12-19T08:56:44.017Z,20.08
2022-12-19T08:59:13.408Z,23.70
2022-12-19T09:01:42.577Z,19.30
2022-12-19T09:06:00.268Z,18.30
2022-12-19T09:06:56.563Z,21.30
2022-12-19T09:09:23.104Z,20.20
2022-12-19T09:11:49.598Z,17.27
2022-12-19T09:14:21.026Z,20.65
2022-12-19T09:19:16.433Z,16.02
2022-12-19T09:21:43.251Z,16.25
2022-12-19T09:24:10.607Z,15.60
2022-12-19T09:26:39.243Z,17.27
2022-12-19T09:29:11.000Z,17.17
2022-12-19T09:31:46.873Z,16.00
2022-12-19T09:34:13.537Z,17.00
2022-12-19T09:36:40.116Z,15.25
2022-12-19T09:39:06.601Z,15.35
2022-12-19T09:41:54.104Z,14.27
2022-12-19T09:44:35.564Z,15.90
2022-12-19T09:47:13.385Z,14.73
2022-12-19T09:49:45.125Z,13.98
2022-12-19T09:52:35.761Z,16.30
2022-12-19T09:55:11.342Z,14.57
2022-12-19T09:57:52.588Z,15.27
2022-12-19T10:00:22.093Z,15.25
2022-12-19T10:03:04.947Z,12.48
2022-12-19T10:06:45.693Z,15.63
2022-12-19T10:08:35.964Z,13.30
2022-12-19T10:12:39.327Z,12.32
2022-12-19T10:14:03.341Z,14.20
2022-12-19T10:17:22.560Z,12.73
2022-12-19T10:19:58.029Z,14.57
2022-12-19T10:22:29.529Z,12.13
2022-12-19T10:25:25.966Z,12.48
2022-12-19T10:28:29.568Z,11.25
2022-12-19T10:31:17.016Z,12.20
2022-12-19T10:33:56.291Z,11.83
2022-12-19T10:36:41.884Z,11.55
2022-12-19T10:39:31.528Z,13.48
2022-12-19T10:42:09.266Z,11.75
2022-12-19T10:44:38.491Z,11.35
2022-12-19T10:47:05.185Z,11.85
2022-12-19T10:49:31.852Z,10.93
2022-12-19T10:51:59.986Z,12.65
2022-12-19T10:54:37.598Z,10.25
2022-12-19T10:57:22.470Z,10.80
2022-12-19T10:59:58.141Z,10.65
2022-12-19T11:02:32.686Z,10.73
2022-12-19T11:04:59.455Z,11.25
2022-12-19T11:07:26.038Z,10.05
2022-12-19T11:09:58.378Z,11.50
2022-12-19T11:18:28.831Z,12.50
2022-12-19T11:21:16.993Z,11.82
2022-12-19T11:29:17.026Z,12.43
2022-12-19T11:29:54.275Z,10.00
2022-12-19T11:30:45.502Z,11.20
2022-12-19T11:30:59.411Z,11.50
2022-12-19T11:33:18.956Z,11.18
2022-12-19T11:35:54.375Z,12.07
2022-12-19T11:38:48.465Z,10.85
2022-12-19T11:41:20.113Z,10.68
2022-12-19T11:43:55.921Z,11.45
2022-12-19T11:46:45.630Z,10.68
2022-12-19T11:49:19.684Z,11.00
2022-12-19T11:51:55.893Z,9.98
2022-12-19T11:54:28.745Z,9.60
2022-12-19T12:31:53.470Z,10.38
2022-12-19T12:32:05.780Z,10.50
2022-12-19T12:35:13.666Z,8.65
2022-12-19T12:35:52.363Z,9.40
2022-12-19T12:38:54.163Z,8.02
2022-12-19T12:42:04.106Z,8.98
2022-12-19T12:44:45.218Z,8.45
2022-12-19T12:47:27.771Z,8.57
2022-12-19T12:50:04.053Z,6.70
2022-12-19T12:52:38.145Z,8.38
2022-12-19T12:55:27.768Z,7.95
2022-12-19T12:57:54.342Z,8.13
2022-12-19T13:00:32.252Z,7.45
2022-12-19T13:03:07.067Z,9.85
2022-12-19T13:05:54.119Z,8.02
2022-12-19T13:08:45.758Z,7.85
2022-12-19T13:11:52.709Z,7.32
2022-12-19T13:14:34.228Z,8.43
2022-12-19T13:17:02.490Z,7.30
2022-12-19T13:19:31.773Z,7.65
2022-12-19T13:22:04.172Z,7.47
2022-12-19T13:24:45.828Z,7.20
2022-12-19T13:27:33.684Z,7.20
2022-12-19T13:30:00.212Z,6.78
2022-12-19T13:32:30.408Z,6.82
2022-12-19T13:35:20.576Z,7.65
2022-12-19T13:39:57.594Z,7.50
2022-12-19T13:40:43.543Z,8.63
2022-12-19T13:43:38.346Z,5.82
2022-12-19T13:46:18.438Z,5.80
2022-12-19T13:48:48.162Z,7.70
2022-12-19T13:51:15.277Z,6.05
2022-12-19T13:53:43.605Z,6.25
2022-12-19T13:56:17.694Z,6.65
2022-12-19T13:58:53.833Z,6.22
2022-12-19T14:01:37.388Z,6.88
2022-12-19T14:04:10.693Z,6.07
2022-12-19T14:06:43.795Z,6.55
2022-12-19T14:11:28.779Z,7.93
2022-12-19T14:13:46.155Z,6.22
2022-12-19T14:15:41.185Z,7.40
2022-12-19T14:18:45.125Z,6.72
2022-12-19T14:22:05.119Z,7.63
2022-12-19T14:24:21.163Z,6.47
2022-12-19T14:28:17.252Z,6.78
2022-12-19T14:30:29.330Z,7.20
2022-12-19T14:33:46.086Z,6.82
2022-12-19T14:36:09.797Z,7.75
2022-12-19T14:39:23.169Z,6.35
2022-12-19T14:41:46.946Z,6.43
2022-12-19T14:52:11.542Z,6.97
2022-12-19T14:53:10.923Z,8.38
2022-12-19T14:54:06.296Z,6.75
2022-12-19T14:54:41.628Z,7.55
2022-12-19T14:56:16.098Z,7.63
2022-12-19T14:58:53.566Z,8.30
2022-12-19T15:01:26.010Z,7.00
2022-12-19T15:04:53.080Z,6.82
2022-12-19T15:07:07.428Z,7.13
2022-12-19T15:11:07.502Z,7.57
2022-12-19T15:14:48.490Z,6.20
2022-12-19T15:15:48.089Z,6.97
2022-12-19T15:18:37.831Z,6.18
2022-12-19T15:21:08.105Z,5.85
2022-12-19T15:23:34.724Z,8.70
2022-12-19T15:26:05.643Z,6.32
2022-12-19T15:28:43.692Z,6.45
2022-12-19T15:31:20.277Z,5.65
2022-12-19T15:34:23.210Z,6.47
2022-12-19T15:36:33.465Z,6.97
2022-12-19T15:39:00.075Z,6.57
2022-12-19T15:41:27.274Z,6.50
2022-12-19T15:44:03.659Z,5.90
2022-12-19T15:46:31.735Z,6.47
2022-12-19T15:48:58.303Z,6.30
2022-12-19T15:51:24.792Z,7.45
2022-12-19T15:53:51.290Z,6.95
2022-12-19T15:56:39.128Z,5.53
2022-12-19T15:59:16.940Z,5.47
2022-12-19T16:01:43.565Z,5.40
2022-12-19T16:04:13.153Z,5.63
2022-12-19T16:06:39.868Z,5.03
2022-12-19T16:09:23.385Z,5.10
2022-12-19T16:11:52.529Z,6.70
2022-12-19T16:14:20.495Z,6.47
2022-12-19T16:16:55.275Z,6.18
2022-12-19T16:19:24.777Z,5.68
2022-12-19T16:21:52.111Z,5.65
2022-12-19T16:24:19.233Z,5.35
2022-12-19T16:26:51.846Z,6.07
2022-12-19T16:29:22.557Z,5.53
2022-12-19T16:31:49.571Z,5.20
2022-12-19T16:34:19.314Z,7.15
2022-12-19T16:36:46.274Z,6.40
2022-12-19T16:39:15.834Z,5.50
2022-12-19T16:41:43.848Z,5.45
2022-12-19T16:44:19.313Z,5.15
2022-12-19T16:46:51.096Z,5.25
2022-12-19T16:49:20.515Z,5.80
2022-12-19T16:51:47.707Z,5.07
2022-12-19T16:54:15.817Z,5.25
2022-12-19T16:56:42.272Z,5.80
2022-12-19T16:59:40.253Z,6.82
2022-12-19T17:02:37.403Z,5.05
2022-12-19T17:05:04.533Z,6.97
2022-12-19T17:07:31.575Z,7.13
2022-12-19T17:09:58.109Z,6.05
2022-12-19T17:12:27.065Z,7.53
2022-12-19T17:14:54.040Z,6.03
2022-12-19T17:17:20.571Z,6.40
2022-12-19T17:19:47.061Z,6.35
2022-12-19T17:22:18.867Z,7.80
2022-12-19T17:27:13.957Z,6.68
2022-12-19T17:29:40.437Z,6.35
2022-12-19T17:32:09.395Z,6.18
2022-12-19T17:34:36.190Z,5.32
2022-12-19T17:37:04.907Z,6.32
2022-12-19T17:39:34.067Z,5.22
2022-12-19T17:42:22.075Z,6.53
2022-12-19T17:44:48.734Z,7.20
2022-12-19T17:47:17.033Z,5.80
2022-12-19T17:49:43.666Z,7.13
2022-12-19T17:52:15.994Z,6.75
2022-12-19T17:54:42.662Z,6.00
2022-12-19T17:57:14.537Z,6.70
2022-12-19T18:02:27.594Z,7.82
2022-12-19T18:04:54.406Z,5.57
2022-12-19T18:07:20.986Z,5.22
2022-12-19T18:09:47.589Z,5.85
2022-12-19T18:12:14.223Z,7.55
2022-12-19T18:14:40.837Z,6.38
2022-12-19T18:17:10.241Z,5.53
2022-12-19T18:19:36.765Z,6.50
2022-12-19T18:22:03.715Z,5.32
2022-12-19T18:24:30.362Z,6.10
2022-12-19T18:26:56.905Z,6.53
2022-12-19T18:29:23.894Z,5.78
2022-12-19T18:31:51.447Z,9.02
2022-12-19T18:34:20.554Z,5.85
2022-12-19T18:36:47.084Z,5.05
2022-12-19T18:39:19.529Z,5.85
2022-12-19T18:41:46.076Z,7.63
2022-12-19T18:44:12.652Z,7.18
2022-12-19T18:46:39.305Z,8.10
2022-12-19T18:49:06.598Z,5.93
2022-12-19T18:51:33.220Z,5.80
2022-12-19T18:54:00.107Z,6.43
2022-12-19T18:56:26.623Z,6.07
2022-12-19T18:58:53.188Z,5.82
2022-12-19T19:01:21.781Z,5.65
2022-12-19T19:03:59.207Z,5.00
2022-12-19T19:06:29.168Z,6.93
2022-12-19T19:08:57.024Z,7.03
2022-12-19T19:11:50.002Z,6.85
2022-12-19T19:14:17.802Z,7.45
2022-12-19T19:16:44.730Z,6.43
2022-12-19T19:19:15.481Z,7.10
2022-12-19T19:21:42.661Z,6.22
2022-12-19T19:24:14.133Z,6.43
2022-12-19T19:26:40.899Z,6.65
2022-12-19T19:29:07.424Z,5.00
2022-12-19T19:31:38.399Z,5.80
2022-12-19T19:34:11.996Z,6.40
2022-12-19T19:36:42.327Z,4.97
2022-12-19T19:39:08.825Z,4.75
2022-12-19T19:41:35.304Z,6.65
2022-12-19T19:44:01.825Z,5.45
2022-12-19T19:46:28.811Z,5.28
2022-12-19T19:48:55.513Z,6.10
2022-12-19T19:51:22.103Z,6.40
2022-12-19T19:53:48.786Z,5.93
2022-12-19T19:56:15.347Z,6.53
2022-12-19T19:58:42.014Z,6.75
2022-12-19T20:01:12.994Z,7.78
2022-12-19T20:03:41.998Z,5.67
2022-12-19T20:06:10.207Z,6.85
2022-12-19T20:08:40.096Z,6.30
2022-12-19T20:11:07.324Z,9.20
2022-12-19T20:13:34.208Z,6.22
2022-12-19T20:16:06.312Z,6.57
2022-12-19T20:18:33.359Z,6.78
2022-12-19T20:20:59.872Z,6.18
2022-12-19T20:23:26.428Z,6.07
2022-12-19T20:25:53.198Z,8.20
2022-12-19T20:28:19.744Z,6.70
2022-12-19T20:30:47.240Z,5.88
2022-12-19T20:33:14.018Z,5.90
2022-12-19T20:35:40.669Z,6.75
2022-12-19T20:38:07.206Z,5.93
2022-12-19T20:40:33.693Z,5.30
2022-12-19T20:43:00.211Z,5.68
2022-12-19T20:45:26.737Z,5.35
2022-12-19T20:47:53.369Z,4.97
2022-12-19T20:50:19.887Z,5.78
2022-12-19T20:52:46.429Z,8.93
2022-12-19T20:55:12.985Z,6.20
2022-12-19T20:57:39.596Z,6.07
2022-12-19T21:00:07.594Z,6.60
2022-12-19T21:02:59.955Z,5.13
2022-12-19T21:05:20.653Z,5.30
2022-12-19T21:07:47.433Z,7.90
2022-12-19T21:10:13.972Z,5.80
2022-12-19T21:12:47.154Z,5.47
2022-12-19T21:15:14.387Z,6.13
2022-12-19T21:17:40.941Z,5.15
2022-12-19T21:20:08.210Z,5.50
2022-12-19T21:22:34.776Z,6.22
2022-12-19T21:25:01.443Z,5.43
2022-12-19T21:27:28.016Z,6.38
2022-12-19T21:29:54.592Z,6.00
2022-12-19T21:32:21.466Z,6.05
2022-12-19T21:34:48.202Z,6.78
2022-12-19T21:37:14.771Z,5.43
2022-12-19T21:39:41.275Z,5.95
2022-12-19T21:42:07.754Z,6.10
2022-12-19T21:44:34.293Z,4.85
2022-12-19T21:47:00.937Z,5.35
2022-12-19T21:49:27.588Z,5.60
2022-12-19T21:51:54.101Z,5.15
2022-12-19T21:54:20.624Z,6.07
2022-12-19T21:56:47.146Z,5.18
2022-12-19T21:59:15.692Z,5.80
2022-12-19T22:01:43.084Z,5.55
2022-12-19T22:04:15.550Z,5.28
2022-12-19T22:06:42.058Z,5.90
2022-12-19T22:09:13.778Z,5.82
2022-12-19T22:11:40.836Z,5.88
2022-12-19T22:14:07.932Z,4.38
2022-12-19T22:16:35.488Z,6.47
2022-12-19T22:19:02.198Z,4.80
2022-12-19T22:21:28.992Z,6.55
2022-12-19T22:24:00.103Z,5.15
2022-12-19T22:26:29.440Z,4.57
2022-12-19T22:28:57.053Z,5.88
2022-12-19T22:31:31.823Z,5.68
2022-12-19T22:34:13.027Z,4.32
2022-12-19T22:36:41.189Z,4.70
2022-12-19T22:39:11.170Z,5.03
2022-12-19T22:41:38.550Z,4.38
2022-12-19T22:44:06.008Z,4.93
2022-12-19T22:46:35.501Z,4.85
2022-12-19T22:49:08.659Z,4.75
2022-12-19T22:51:36.052Z,5.45
2022-12-19T22:54:03.356Z,6.32
2022-12-19T22:56:32.260Z,4.80
2022-12-19T22:59:01.615Z,4.80
2022-12-19T23:01:31.016Z,4.97
2022-12-19T23:03:59.832Z,5.43
2022-12-19T23:06:28.358Z,5.13
2022-12-19T23:08:55.098Z,4.90
2022-12-19T23:11:25.984Z,4.53
2022-12-19T23:13:52.644Z,4.97
2022-12-19T23:16:19.266Z,4.63
2022-12-19T23:18:46.047Z,4.22
2022-12-19T23:21:13.787Z,4.30
2022-12-19T23:23:42.698Z,6.13
2022-12-19T23:26:15.985Z,7.00
2022-12-19T23:28:44.343Z,3.78
2022-12-19T23:31:13.163Z,4.20
2022-12-19T23:33:39.777Z,5.25
2022-12-19T23:36:06.727Z,4.68
2022-12-19T23:38:34.064Z,4.70
2022-12-19T23:41:07.859Z,4.35
2022-12-19T23:43:35.706Z,4.25
2022-12-19T23:46:12.312Z,4.20
2022-12-19T23:48:39.371Z,6.57
2022-12-19T23:51:12.122Z,4.32
2022-12-19T23:53:38.688Z,4.43
2022-12-19T23:56:10.880Z,4.35
2022-12-19T23:58:37.433Z,4.57
